createdAt,value
2022-10-17T00:00:33.621Z,11.98
2022-10-17T00:03:00.585Z,11.95
2022-10-17T00:05:26.954Z,11.23
2022-10-17T00:07:54.588Z,11.95
2022-10-17T00:10:21.802Z,13.52
2022-10-17T00:12:48.379Z,10.98
2022-10-17T00:15:17.376Z,11.07
2022-10-17T00:17:44.238Z,12.27
2022-10-17T00:20:11.571Z,12.50
2022-10-17T00:22:38.030Z,11.38
2022-10-17T00:25:04.724Z,12.65
2022-10-17T00:27:34.197Z,15.50
2022-10-17T00:30:00.573Z,13.90
2022-10-17T00:32:27.259Z,14.93
2022-10-17T00:34:53.733Z,14.80
2022-10-17T00:37:20.072Z,14.32
2022-10-17T00:39:46.708Z,14.43
2022-10-17T00:42:13.607Z,12.55
2022-10-17T00:44:39.892Z,14.75
2022-10-17T00:47:11.731Z,13.77
2022-10-17T00:49:39.138Z,12.10
2022-10-17T00:52:10.125Z,13.10
2022-10-17T00:54:51.713Z,14.77
2022-10-17T00:57:18.118Z,14.80
2022-10-17T00:59:49.918Z,13.32
2022-10-17T01:02:19.284Z,12.40
2022-10-17T01:04:48.746Z,14.88
2022-10-17T01:07:15.200Z,13.10
2022-10-17T01:09:45.125Z,15.23
2022-10-17T01:12:20.771Z,13.15
2022-10-17T01:15:18.769Z,12.57
2022-10-17T01:18:06.855Z,12.57
2022-10-17T01:20:39.298Z,13.55
2022-10-17T01:23:36.350Z,13.32
2022-10-17T01:26:27.461Z,12.77
2022-10-17T01:29:18.324Z,12.32
2022-10-17T01:31:55.061Z,15.57
2022-10-17T01:34:53.809Z,12.60
2022-10-17T01:37:31.456Z,13.63
2022-10-17T01:40:10.605Z,14.50
2022-10-17T01:43:03.453Z,12.68
2022-10-17T01:45:37.501Z,14.18
2022-10-17T01:48:14.409Z,14.07
2022-10-17T01:50:50.641Z,14.45
2022-10-17T01:53:25.480Z,13.27
2022-10-17T01:55:54.119Z,12.63
2022-10-17T01:58:28.372Z,13.93
2022-10-17T02:00:58.477Z,13.07
2022-10-17T02:03:27.647Z,12.85
2022-10-17T02:05:54.746Z,16.25
2022-10-17T02:08:42.785Z,13.75
2022-10-17T02:11:18.841Z,14.68
2022-10-17T02:14:19.220Z,16.00
2022-10-17T02:17:08.418Z,14.50
2022-10-17T02:20:11.840Z,14.88
2022-10-17T02:22:47.449Z,13.63
2022-10-17T02:25:22.938Z,14.25
2022-10-17T02:27:58.662Z,14.73
2022-10-17T02:30:39.639Z,13.40
2022-10-17T02:33:12.761Z,13.45
2022-10-17T02:35:43.699Z,13.48
2022-10-17T02:38:12.152Z,15.32
2022-10-17T02:40:40.761Z,15.90
2022-10-17T02:43:07.754Z,15.63
2022-10-17T02:45:37.160Z,15.25
2022-10-17T02:48:08.435Z,15.63
2022-10-17T02:50:53.554Z,18.10
2022-10-17T02:53:30.253Z,14.82
2022-10-17T02:56:00.222Z,16.33
2022-10-17T02:58:32.804Z,15.82
2022-10-17T03:01:00.771Z,16.50
2022-10-17T03:03:32.059Z,14.65
2022-10-17T03:05:58.478Z,15.90
2022-10-17T03:08:25.418Z,17.60
2022-10-17T03:10:51.887Z,15.27
2022-10-17T03:13:18.394Z,16.35
2022-10-17T03:15:44.927Z,17.13
2022-10-17T03:18:11.589Z,19.33
2022-10-17T03:20:38.070Z,15.55
2022-10-17T03:23:04.429Z,19.33
2022-10-17T03:25:30.861Z,14.85
2022-10-17T03:28:01.486Z,18.35
2022-10-17T03:30:29.019Z,16.10
2022-10-17T03:32:57.093Z,17.02
2022-10-17T03:35:23.472Z,20.58
2022-10-17T03:37:49.991Z,16.58
2022-10-17T03:40:16.417Z,17.25
2022-10-17T03:42:42.834Z,15.07
2022-10-17T03:45:09.762Z,13.68
2022-10-17T03:47:36.406Z,15.80
2022-10-17T03:50:02.961Z,17.15
2022-10-17T03:52:29.296Z,14.73
2022-10-17T03:54:55.632Z,16.90
2022-10-17T03:57:21.969Z,17.83
2022-10-17T03:59:50.454Z,14.10
2022-10-17T04:02:16.824Z,15.10
2022-10-17T04:04:43.157Z,18.50
2022-10-17T04:07:09.505Z,17.27
2022-10-17T04:09:36.162Z,15.52
2022-10-17T04:12:02.539Z,17.85
2022-10-17T04:14:28.868Z,16.55
2022-10-17T04:16:55.311Z,15.95
2022-10-17T04:19:21.656Z,16.85
2022-10-17T04:21:48.035Z,15.55
2022-10-17T04:24:14.531Z,16.77
2022-10-17T04:26:40.920Z,15.82
2022-10-17T04:29:07.501Z,17.38
2022-10-17T04:31:33.861Z,15.48
2022-10-17T04:34:00.205Z,15.43
2022-10-17T04:36:26.564Z,16.08
2022-10-17T04:38:53.070Z,15.02
2022-10-17T04:41:19.540Z,23.48
2022-10-17T04:43:48.616Z,14.85
2022-10-17T04:46:17.509Z,14.35
2022-10-17T04:48:44.263Z,15.52
2022-10-17T04:51:13.729Z,16.55
2022-10-17T04:53:41.454Z,16.85
2022-10-17T04:56:15.201Z,14.40
2022-10-17T04:58:43.237Z,16.05
2022-10-17T05:01:12.248Z,15.55
2022-10-17T05:03:38.689Z,18.98
2022-10-17T05:06:10.839Z,16.00
2022-10-17T05:08:37.597Z,15.77
2022-10-17T05:11:05.679Z,14.65
2022-10-17T05:13:32.708Z,14.10
2022-10-17T05:16:01.002Z,15.25
2022-10-17T05:18:28.711Z,14.75
2022-10-17T05:20:55.090Z,16.77
2022-10-17T05:23:21.777Z,14.88
2022-10-17T05:25:48.269Z,15.60
2022-10-17T05:28:15.081Z,19.30
2022-10-17T05:30:41.406Z,16.75
2022-10-17T05:33:07.838Z,15.93
2022-10-17T05:35:34.180Z,14.27
2022-10-17T05:38:01.032Z,15.70
2022-10-17T05:40:27.565Z,16.88
2022-10-17T05:42:54.691Z,16.45
2022-10-17T05:45:21.136Z,17.38
2022-10-17T05:47:47.772Z,14.82
2022-10-17T05:50:14.221Z,15.77
2022-10-17T05:52:42.871Z,15.05
2022-10-17T05:55:11.549Z,17.27
2022-10-17T05:57:38.387Z,14.93
2022-10-17T06:00:06.039Z,17.08
2022-10-17T06:02:33.026Z,16.70
2022-10-17T06:04:59.744Z,16.45
2022-10-17T06:07:26.106Z,15.45
2022-10-17T06:09:52.456Z,15.68
2022-10-17T06:12:18.832Z,18.45
2022-10-17T06:14:45.183Z,14.10
2022-10-17T06:17:15.768Z,15.00
2022-10-17T06:19:44.366Z,15.75
2022-10-17T06:22:10.758Z,15.27
2022-10-17T06:24:37.103Z,15.13
2022-10-17T06:27:05.859Z,14.02
2022-10-17T06:29:35.680Z,15.88
2022-10-17T06:32:02.036Z,15.68
2022-10-17T06:34:28.476Z,14.15
2022-10-17T06:36:54.872Z,14.55
2022-10-17T06:39:21.662Z,16.70
2022-10-17T06:41:48.061Z,17.00
2022-10-17T06:44:14.433Z,15.13
2022-10-17T06:46:40.945Z,16.23
2022-10-17T06:49:10.280Z,16.05
2022-10-17T06:51:37.859Z,14.30
2022-10-17T06:54:04.560Z,16.35
2022-10-17T06:56:30.961Z,16.48
2022-10-17T06:58:57.344Z,17.05
2022-10-17T07:01:23.761Z,13.82
2022-10-17T07:03:50.144Z,18.20
2022-10-17T07:06:17.891Z,16.08
2022-10-17T07:08:45.411Z,15.13
2022-10-17T07:11:18.853Z,15.50
2022-10-17T07:13:45.224Z,16.13
2022-10-17T07:16:12.512Z,13.63
2022-10-17T07:18:40.135Z,15.48
2022-10-17T07:21:08.468Z,15.73
2022-10-17T07:23:36.946Z,13.80
2022-10-17T07:26:08.305Z,14.63
2022-10-17T07:28:37.586Z,16.08
2022-10-17T07:31:07.001Z,14.25
2022-10-17T07:33:33.756Z,14.27
2022-10-17T07:36:01.766Z,14.98
2022-10-17T07:38:29.026Z,16.48
2022-10-17T07:40:56.872Z,14.45
2022-10-17T07:43:24.668Z,14.77
2022-10-17T07:45:51.615Z,14.85
2022-10-17T07:48:19.096Z,17.77
2022-10-17T07:50:45.795Z,12.73
2022-10-17T07:53:12.162Z,15.75
2022-10-17T07:55:39.845Z,12.50
2022-10-17T07:58:08.766Z,13.25
2022-10-17T08:00:36.848Z,13.63
2022-10-17T08:03:04.055Z,14.27
2022-10-17T08:05:31.309Z,13.68
2022-10-17T08:07:57.994Z,16.50
2022-10-17T08:10:29.276Z,13.45
2022-10-17T08:12:57.565Z,16.27
2022-10-17T08:15:29.329Z,16.95
2022-10-17T08:17:59.117Z,16.10
2022-10-17T08:20:25.498Z,14.63
2022-10-17T08:22:53.698Z,12.15
2022-10-17T08:25:20.115Z,13.05
2022-10-17T08:27:46.935Z,13.73
2022-10-17T08:30:13.620Z,15.63
2022-10-17T08:32:40.066Z,11.95
2022-10-17T08:35:06.945Z,14.10
2022-10-17T08:37:33.891Z,17.67
2022-10-17T08:40:00.488Z,13.60
2022-10-17T08:42:29.794Z,14.75
2022-10-17T08:45:08.354Z,16.30
2022-10-17T08:47:39.241Z,13.27
2022-10-17T08:50:11.736Z,13.57
2022-10-17T08:52:47.970Z,14.70
2022-10-17T08:55:36.998Z,13.25
2022-10-17T08:58:21.109Z,14.93
2022-10-17T09:01:09.018Z,15.90
2022-10-17T09:04:15.152Z,13.27
2022-10-17T09:06:53.913Z,16.27
2022-10-17T09:09:32.379Z,13.82
2022-10-17T09:12:16.690Z,15.32
2022-10-17T09:15:08.319Z,14.60
2022-10-17T09:17:37.565Z,15.43
2022-10-17T09:20:12.242Z,14.60
2022-10-17T09:22:45.563Z,13.23
2022-10-17T09:25:15.292Z,14.20
2022-10-17T09:28:06.330Z,13.77
2022-10-17T09:30:44.545Z,14.70
2022-10-17T09:33:28.486Z,17.58
2022-10-17T09:36:11.049Z,14.07
2022-10-17T09:38:44.455Z,15.73
2022-10-17T09:41:44.139Z,13.95
2022-10-17T09:44:25.522Z,14.40
2022-10-17T09:47:00.974Z,13.40
2022-10-17T09:49:36.470Z,14.48
2022-10-17T09:52:05.246Z,13.93
2022-10-17T09:54:48.341Z,13.85
2022-10-17T09:57:16.812Z,16.35
2022-10-17T10:00:05.012Z,13.27
2022-10-17T10:02:33.493Z,14.70
2022-10-17T10:05:16.230Z,12.73
2022-10-17T10:07:46.074Z,12.93
2022-10-17T10:10:32.620Z,14.32
2022-10-17T10:13:22.252Z,16.10
2022-10-17T10:15:50.793Z,13.55
2022-10-17T10:18:26.221Z,14.07
2022-10-17T10:21:07.014Z,14.85
2022-10-17T10:23:34.070Z,13.48
2022-10-17T10:26:05.952Z,11.80
2022-10-17T10:28:35.381Z,13.82
2022-10-17T10:31:07.992Z,14.25
2022-10-17T10:33:41.768Z,12.73
2022-10-17T10:36:09.063Z,12.43
2022-10-17T10:38:40.892Z,13.20
2022-10-17T10:41:09.970Z,13.40
2022-10-17T10:43:42.155Z,13.50
2022-10-17T10:46:23.893Z,13.88
2022-10-17T10:48:54.211Z,14.13
2022-10-17T10:51:31.117Z,10.93
2022-10-17T10:56:51.110Z,14.27
2022-10-17T10:59:31.722Z,10.95
2022-10-17T11:02:08.333Z,11.50
2022-10-17T11:04:43.379Z,10.68
2022-10-17T11:07:14.371Z,11.63
2022-10-17T11:10:01.865Z,12.23
2022-10-17T11:12:33.325Z,12.70
2022-10-17T11:15:02.674Z,10.48
2022-10-17T11:17:36.939Z,9.77
2022-10-17T11:20:09.011Z,10.55
2022-10-17T11:22:43.169Z,10.48
2022-10-17T11:25:12.269Z,9.68
2022-10-17T11:27:38.937Z,10.05
2022-10-17T11:30:06.177Z,10.77
2022-10-17T11:32:50.440Z,9.82
2022-10-17T11:35:32.133Z,9.20
2022-10-17T11:38:29.780Z,10.55
2022-10-17T11:40:59.382Z,11.52
2022-10-17T11:43:31.164Z,9.88
2022-10-17T11:46:12.532Z,11.20
2022-10-17T11:49:20.855Z,10.48
2022-10-17T11:52:01.510Z,13.68
2022-10-17T11:54:42.823Z,10.45
2022-10-17T11:57:15.002Z,10.25
2022-10-17T12:00:19.056Z,12.27
2022-10-17T12:02:49.486Z,13.18
2022-10-17T12:05:22.223Z,11.70
2022-10-17T12:08:00.407Z,10.43
2022-10-17T12:10:32.838Z,11.50
2022-10-17T12:13:27.977Z,10.52
2022-10-17T12:16:18.050Z,10.00
2022-10-17T12:18:44.991Z,10.15
2022-10-17T12:21:11.590Z,12.55
2022-10-17T12:23:41.261Z,9.32
2022-10-17T12:26:09.859Z,10.02
2022-10-17T12:28:44.318Z,11.85
2022-10-17T12:31:16.411Z,12.00
2022-10-17T12:33:45.816Z,9.90
2022-10-17T12:36:18.360Z,12.18
2022-10-17T12:38:51.468Z,11.18
2022-10-17T12:41:37.754Z,10.75
2022-10-17T12:44:13.270Z,11.48
2022-10-17T12:46:50.897Z,11.02
2022-10-17T12:49:55.821Z,11.98
2022-10-17T12:52:32.208Z,12.20
2022-10-17T12:55:13.543Z,11.73
2022-10-17T12:58:14.200Z,11.93
2022-10-17T13:01:19.038Z,11.85
2022-10-17T13:03:45.727Z,12.85
2022-10-17T13:06:20.964Z,12.45
2022-10-17T13:08:56.870Z,12.20
2022-10-17T13:11:28.428Z,12.98
2022-10-17T13:13:58.306Z,11.23
2022-10-17T13:16:32.185Z,12.05
2022-10-17T13:19:00.624Z,12.20
2022-10-17T13:21:27.596Z,13.02
2022-10-17T13:23:54.408Z,13.43
2022-10-17T13:26:26.504Z,12.35
2022-10-17T13:29:11.145Z,12.05
2022-10-17T13:31:43.790Z,13.05
2022-10-17T13:34:25.005Z,12.27
2022-10-17T13:37:13.352Z,11.38
2022-10-17T13:39:55.685Z,12.02
2022-10-17T13:42:27.699Z,10.95
2022-10-17T13:44:55.080Z,10.15
2022-10-17T13:47:28.440Z,12.13
2022-10-17T13:49:56.434Z,12.73
2022-10-17T13:52:27.287Z,10.07
2022-10-17T13:54:54.805Z,11.98
2022-10-17T13:57:29.739Z,12.45
2022-10-17T14:00:02.086Z,13.98
2022-10-17T14:02:30.797Z,11.38
2022-10-17T14:05:22.955Z,11.13
2022-10-17T14:08:11.432Z,10.02
2022-10-17T14:13:10.801Z,11.90
2022-10-17T14:15:37.439Z,13.00
2022-10-17T14:18:09.456Z,11.10
2022-10-17T14:23:42.019Z,10.45
2022-10-17T14:26:17.856Z,11.52
2022-10-17T14:28:47.483Z,10.27
2022-10-17T14:31:25.774Z,10.00
2022-10-17T14:33:53.878Z,12.98
2022-10-17T14:36:30.535Z,14.80
2022-10-17T14:38:57.572Z,12.20
2022-10-17T14:41:42.544Z,10.43
2022-10-17T14:44:19.205Z,9.07
2022-10-17T14:46:50.812Z,10.15
2022-10-17T14:49:25.367Z,9.80
2022-10-17T14:52:17.719Z,9.45
2022-10-17T14:54:46.992Z,11.07
2022-10-17T14:57:28.740Z,10.02
2022-10-17T14:59:56.529Z,9.68
2022-10-17T15:02:25.015Z,10.90
2022-10-17T15:04:51.641Z,11.55
2022-10-17T15:07:18.879Z,10.85
2022-10-17T15:09:49.143Z,10.10
2022-10-17T15:12:19.018Z,11.77
2022-10-17T15:14:47.823Z,10.88
2022-10-17T15:17:20.807Z,11.90
2022-10-17T15:19:48.380Z,12.23
2022-10-17T15:22:16.746Z,9.90
2022-10-17T15:24:43.252Z,9.52
2022-10-17T15:27:16.269Z,11.93
2022-10-17T15:29:42.936Z,10.48
2022-10-17T15:32:09.614Z,13.60
2022-10-17T15:34:36.210Z,10.75
2022-10-17T15:37:04.729Z,9.93
2022-10-17T15:39:31.575Z,8.73
2022-10-17T15:41:58.715Z,9.30
2022-10-17T15:44:25.235Z,10.55
2022-10-17T15:46:51.617Z,10.77
2022-10-17T15:49:19.903Z,11.02
2022-10-17T15:51:47.210Z,10.75
2022-10-17T15:54:15.702Z,12.27
2022-10-17T15:56:43.125Z,10.05
2022-10-17T15:59:17.867Z,11.57
2022-10-17T16:01:44.559Z,9.65
2022-10-17T16:04:14.601Z,10.70
2022-10-17T16:06:42.538Z,11.48
2022-10-17T16:09:09.593Z,11.05
2022-10-17T16:11:39.173Z,13.15
2022-10-17T16:14:09.737Z,10.65
2022-10-17T16:19:02.590Z,10.30
2022-10-17T16:21:32.508Z,11.50
2022-10-17T16:24:00.453Z,12.48
2022-10-17T16:26:28.212Z,9.82
2022-10-17T16:28:58.158Z,12.27
2022-10-17T16:31:30.770Z,11.80
2022-10-17T16:33:59.296Z,11.23
2022-10-17T16:36:25.684Z,9.30
2022-10-17T16:38:55.813Z,13.90
2022-10-17T16:41:26.346Z,14.55
2022-10-17T16:43:54.493Z,10.85
2022-10-17T16:46:21.912Z,11.30
2022-10-17T16:48:49.710Z,12.05
2022-10-17T16:51:18.726Z,10.80
2022-10-17T16:53:46.314Z,11.15
2022-10-17T16:56:15.270Z,9.88
2022-10-17T16:58:42.721Z,10.25
2022-10-17T17:01:13.989Z,11.80
2022-10-17T17:03:42.379Z,12.32
2022-10-17T17:06:13.306Z,10.60
2022-10-17T17:08:40.043Z,11.70
2022-10-17T17:11:07.907Z,13.45
2022-10-17T17:13:34.798Z,11.23
2022-10-17T17:16:06.927Z,11.38
2022-10-17T17:18:33.642Z,18.60
2022-10-17T17:21:01.908Z,19.15
2022-10-17T17:23:29.962Z,18.52
2022-10-17T17:26:01.485Z,16.27
2022-10-17T17:28:29.184Z,15.20
2022-10-17T17:30:55.753Z,13.52
2022-10-17T17:33:23.787Z,15.32
2022-10-17T17:35:58.649Z,12.20
2022-10-17T17:38:25.553Z,13.95
2022-10-17T17:40:52.136Z,14.15
2022-10-17T17:43:18.832Z,14.18
2022-10-17T17:45:45.362Z,14.25
2022-10-17T17:48:12.320Z,13.38
2022-10-17T17:50:40.698Z,15.57
2022-10-17T17:53:08.649Z,12.18
2022-10-17T17:55:35.365Z,13.50
2022-10-17T17:58:02.734Z,14.98
2022-10-17T18:00:29.383Z,10.85
2022-10-17T18:02:56.904Z,15.85
2022-10-17T18:05:24.053Z,15.27
2022-10-17T18:07:50.507Z,15.70
2022-10-17T18:10:17.053Z,15.10
2022-10-17T18:12:43.694Z,13.90
2022-10-17T18:15:10.564Z,15.55
2022-10-17T18:17:37.769Z,16.17
2022-10-17T18:20:06.101Z,16.92
2022-10-17T18:22:33.208Z,17.92
2022-10-17T18:24:59.725Z,18.40
2022-10-17T18:27:26.076Z,15.65
2022-10-17T18:29:52.754Z,13.90
2022-10-17T18:32:19.229Z,14.23
2022-10-17T18:34:45.550Z,15.35
2022-10-17T18:37:12.013Z,15.38
2022-10-17T18:39:38.480Z,14.68
2022-10-17T18:42:04.848Z,16.67
2022-10-17T18:44:31.185Z,17.73
2022-10-17T18:47:02.929Z,19.25
2022-10-17T18:49:31.383Z,18.58
2022-10-17T18:51:59.396Z,17.08
2022-10-17T18:54:25.833Z,20.38
2022-10-17T18:56:54.330Z,19.20
2022-10-17T18:59:20.957Z,17.70
2022-10-17T19:01:47.964Z,18.50
2022-10-17T19:04:14.710Z,15.43
2022-10-17T19:06:41.756Z,16.50
2022-10-17T19:09:09.970Z,22.95
2022-10-17T19:11:38.170Z,18.00
2022-10-17T19:14:13.283Z,19.50
2022-10-17T19:16:50.907Z,23.75
2022-10-17T19:19:21.984Z,20.63
2022-10-17T19:21:48.986Z,17.70
2022-10-17T19:24:24.898Z,14.90
2022-10-17T19:26:53.546Z,16.45
2022-10-17T19:29:21.262Z,21.50
2022-10-17T19:31:48.114Z,18.13
2022-10-17T19:34:15.510Z,17.85
2022-10-17T19:36:42.813Z,16.38
2022-10-17T19:39:18.985Z,20.02
2022-10-17T19:41:48.137Z,17.40
2022-10-17T19:44:15.438Z,19.23
2022-10-17T19:46:44.265Z,20.55
2022-10-17T19:49:11.493Z,21.23
2022-10-17T19:51:37.960Z,25.35
2022-10-17T19:54:04.384Z,26.63
2022-10-17T19:56:32.812Z,27.02
2022-10-17T19:58:59.431Z,26.88
2022-10-17T20:01:29.341Z,25.67
2022-10-17T20:03:56.531Z,25.45
2022-10-17T20:06:23.389Z,24.98
2022-10-17T20:08:50.480Z,22.88
2022-10-17T20:11:25.020Z,23.25
2022-10-17T20:13:53.688Z,22.00
2022-10-17T20:16:25.885Z,21.77
2022-10-17T20:18:55.509Z,27.85
2022-10-17T20:21:25.184Z,23.02
2022-10-17T20:23:51.575Z,23.85
2022-10-17T20:26:38.715Z,25.25
2022-10-17T20:29:11.254Z,28.13
2022-10-17T20:31:38.849Z,27.25
2022-10-17T20:34:05.282Z,28.55
2022-10-17T20:36:32.261Z,26.83
2022-10-17T20:38:59.367Z,25.15
2022-10-17T20:41:26.560Z,28.27
2022-10-17T20:43:54.454Z,25.35
2022-10-17T20:46:35.556Z,27.90
2022-10-17T20:49:05.039Z,34.20
2022-10-17T20:51:31.450Z,30.13
2022-10-17T20:53:57.841Z,28.98
2022-10-17T20:56:28.147Z,25.73
2022-10-17T20:58:59.720Z,24.50
2022-10-17T21:01:27.482Z,28.17
2022-10-17T21:03:54.312Z,22.88
2022-10-17T21:06:22.088Z,27.00
2022-10-17T21:08:49.506Z,24.42
2022-10-17T21:11:19.108Z,24.58
2022-10-17T21:13:46.788Z,22.13
2022-10-17T21:16:16.601Z,27.38
2022-10-17T21:18:44.202Z,21.33
2022-10-17T21:21:34.508Z,22.52
2022-10-17T21:24:03.698Z,24.17
2022-10-17T21:26:32.488Z,24.13
2022-10-17T21:29:02.860Z,23.33
2022-10-17T21:31:29.286Z,23.25
2022-10-17T21:34:00.957Z,24.35
2022-10-17T21:36:28.535Z,22.98
2022-10-17T21:38:56.594Z,21.75
2022-10-17T21:41:26.446Z,24.05
2022-10-17T21:43:58.070Z,21.83
2022-10-17T21:46:24.880Z,21.92
2022-10-17T21:48:52.642Z,19.35
2022-10-17T21:51:22.946Z,20.73
2022-10-17T21:53:51.255Z,21.88
2022-10-17T21:56:19.924Z,18.55
2022-10-17T21:58:47.672Z,21.85
2022-10-17T22:01:18.919Z,21.10
2022-10-17T22:03:47.649Z,22.80
2022-10-17T22:06:38.598Z,20.13
2022-10-17T22:09:04.407Z,19.38
2022-10-17T22:11:33.865Z,20.60
2022-10-17T22:14:11.056Z,22.48
2022-10-17T22:16:38.336Z,21.08
2022-10-17T22:19:06.655Z,19.23
2022-10-17T22:21:34.980Z,20.35
2022-10-17T22:24:04.070Z,18.58
2022-10-17T22:26:32.337Z,20.83
2022-10-17T22:28:59.269Z,19.55
2022-10-17T22:31:26.323Z,19.23
2022-10-17T22:33:53.322Z,19.90
2022-10-17T22:36:19.689Z,16.83
2022-10-17T22:38:46.310Z,17.60
2022-10-17T22:41:12.664Z,17.98
2022-10-17T22:43:39.138Z,17.23
2022-10-17T22:46:07.294Z,21.23
2022-10-17T22:48:34.219Z,24.23
2022-10-17T22:51:01.135Z,17.58
2022-10-17T22:53:29.331Z,22.25
2022-10-17T22:55:59.356Z,25.17
2022-10-17T22:58:26.643Z,21.05
2022-10-17T23:00:54.068Z,15.93
2022-10-17T23:03:21.484Z,16.55
2022-10-17T23:05:48.970Z,18.02
2022-10-17T23:08:17.848Z,15.80
2022-10-17T23:10:45.696Z,19.25
2022-10-17T23:13:13.045Z,16.58
2022-10-17T23:15:40.460Z,16.70
2022-10-17T23:18:07.639Z,25.92
2022-10-17T23:20:33.985Z,19.42
2022-10-17T23:23:00.355Z,16.20
2022-10-17T23:25:26.830Z,18.05
2022-10-17T23:27:53.567Z,27.77
2022-10-17T23:30:20.005Z,46.33
2022-10-17T23:32:46.409Z,27.15
2022-10-17T23:35:12.894Z,26.13
2022-10-17T23:37:39.284Z,17.38
2022-10-17T23:40:06.307Z,24.95
2022-10-17T23:42:32.696Z,27.58
2022-10-17T23:44:59.148Z,36.85
2022-10-17T23:47:25.522Z,22.70
2022-10-17T23:49:51.977Z,21.73
2022-10-17T23:52:18.340Z,30.75
2022-10-17T23:54:44.818Z,27.23
2022-10-17T23:57:11.186Z,29.52
2022-10-17T23:59:37.781Z,33.28
